sensor_id;sensor_type;location;lat;lon;timestamp;pressure;altitude;pressure_sealevel;temperature;humidity
73457;BME280;61691;53.072;6.582;2023-05-23T00:00:58;101640.34;;;14.71;76.50
73457;BME280;61691;53.072;6.582;2023-05-23T00:03:26;101660.00;;;14.80;76.33
73457;BME280;61691;53.072;6.582;2023-05-23T00:05:53;101655.50;;;14.71;76.75
73457;BME280;61691;53.072;6.582;2023-05-23T00:08:19;101657.19;;;14.72;76.78
73457;BME280;61691;53.072;6.582;2023-05-23T00:10:46;101655.50;;;14.71;76.83
73457;BME280;61691;53.072;6.582;2023-05-23T00:13:13;101659.88;;;14.72;76.81
73457;BME280;61691;53.072;6.582;2023-05-23T00:15:41;101665.63;;;14.77;77.32
73457;BME280;61691;53.072;6.582;2023-05-23T00:18:11;101656.91;;;14.75;77.21
73457;BME280;61691;53.072;6.582;2023-05-23T00:20:39;101662.25;;;14.65;77.61
73457;BME280;61691;53.072;6.582;2023-05-23T00:23:10;101650.16;;;14.52;77.41
73457;BME280;61691;53.072;6.582;2023-05-23T00:25:39;101657.31;;;14.61;77.36
73457;BME280;61691;53.072;6.582;2023-05-23T00:28:07;101662.25;;;14.65;77.79
73457;BME280;61691;53.072;6.582;2023-05-23T00:30:33;101672.09;;;14.65;78.15
73457;BME280;61691;53.072;6.582;2023-05-23T00:33:00;101676.00;;;14.61;77.79
73457;BME280;61691;53.072;6.582;2023-05-23T00:35:27;101670.66;;;14.61;78.55
73457;BME280;61691;53.072;6.582;2023-05-23T00:37:54;101683.88;;;14.53;78.77
73457;BME280;61691;53.072;6.582;2023-05-23T00:40:22;101647.59;;;14.31;78.71
73457;BME280;61691;53.072;6.582;2023-05-23T00:42:49;101668.00;;;14.42;78.83
73457;BME280;61691;53.072;6.582;2023-05-23T00:45:16;101661.97;;;14.40;79.01
73457;BME280;61691;53.072;6.582;2023-05-23T00:47:43;101682.47;;;14.49;78.76
73457;BME280;61691;53.072;6.582;2023-05-23T00:50:12;101669.50;;;14.34;79.04
73457;BME280;61691;53.072;6.582;2023-05-23T00:52:41;101688.38;;;14.43;79.20
73457;BME280;61691;53.072;6.582;2023-05-23T00:55:08;101686.69;;;14.42;78.93
73457;BME280;61691;53.072;6.582;2023-05-23T00:57:36;101688.06;;;14.46;79.48
73457;BME280;61691;53.072;6.582;2023-05-23T01:00:07;101686.69;;;14.42;79.07
73457;BME280;61691;53.072;6.582;2023-05-23T01:02:42;101700.69;;;14.44;79.50
73457;BME280;61691;53.072;6.582;2023-05-23T01:05:14;101705.06;;;14.45;79.03
73457;BME280;61691;53.072;6.582;2023-05-23T01:07:46;101711.38;;;14.44;79.52
73457;BME280;61691;53.072;6.582;2023-05-23T01:10:15;101695.34;;;14.34;79.41
73457;BME280;61691;53.072;6.582;2023-05-23T01:13:07;101707.53;;;14.37;79.37
73457;BME280;61691;53.072;6.582;2023-05-23T01:21:06;101716.91;;;14.21;79.41
73457;BME280;61691;53.072;6.582;2023-05-23T01:26:45;101715.94;;;14.22;79.30
73457;BME280;61691;53.072;6.582;2023-05-23T01:29:44;101727.75;;;14.20;79.24
73457;BME280;61691;53.072;6.582;2023-05-23T01:32:15;101741.19;;;14.18;79.69
73457;BME280;61691;53.072;6.582;2023-05-23T01:34:42;101726.72;;;14.11;79.30
73457;BME280;61691;53.072;6.582;2023-05-23T01:37:10;101736.00;;;14.17;79.31
73457;BME280;61691;53.072;6.582;2023-05-23T01:39:37;101707.72;;;13.95;79.41
73457;BME280;61691;53.072;6.582;2023-05-23T01:42:04;101724.72;;;14.04;79.41
73457;BME280;61691;53.072;6.582;2023-05-23T01:44:33;101722.31;;;14.01;79.23
73457;BME280;61691;53.072;6.582;2023-05-23T01:47:04;101746.50;;;14.09;79.65
73457;BME280;61691;53.072;6.582;2023-05-23T01:49:33;101744.38;;;14.03;79.29
73457;BME280;61691;53.072;6.582;2023-05-23T01:52:01;101724.09;;;13.81;78.76
73457;BME280;61691;53.072;6.582;2023-05-23T01:54:28;101736.69;;;13.79;79.22
73457;BME280;61691;53.072;6.582;2023-05-23T01:56:56;101763.84;;;13.93;79.04
73457;BME280;61691;53.072;6.582;2023-05-23T01:59:23;101754.13;;;13.83;78.89
73457;BME280;61691;53.072;6.582;2023-05-23T02:01:50;101714.94;;;13.43;79.28
73457;BME280;61691;53.072;6.582;2023-05-23T02:04:17;101767.06;;;13.67;79.01
73457;BME280;61691;53.072;6.582;2023-05-23T02:06:44;101756.47;;;13.55;78.84
73457;BME280;61691;53.072;6.582;2023-05-23T02:09:12;101764.88;;;13.51;79.28
73457;BME280;61691;53.072;6.582;2023-05-23T02:11:38;101731.09;;;13.31;79.34
73457;BME280;61691;53.072;6.582;2023-05-23T02:14:06;101762.88;;;13.43;79.35
73457;BME280;61691;53.072;6.582;2023-05-23T02:16:32;101756.91;;;13.30;79.42
73457;BME280;61691;53.072;6.582;2023-05-23T02:19:02;101776.00;;;13.35;79.54
73457;BME280;61691;53.072;6.582;2023-05-23T02:21:29;101778.78;;;13.34;79.27
73457;BME280;61691;53.072;6.582;2023-05-23T02:24:00;101767.81;;;13.27;79.23
73457;BME280;61691;53.072;6.582;2023-05-23T02:26:27;101772.28;;;13.27;79.33
73457;BME280;61691;53.072;6.582;2023-05-23T02:28:53;101778.44;;;13.27;79.40
73457;BME280;61691;53.072;6.582;2023-05-23T02:31:20;101762.03;;;13.11;79.82
73457;BME280;61691;53.072;6.582;2023-05-23T02:33:47;101763.63;;;13.13;79.56
73457;BME280;61691;53.072;6.582;2023-05-23T02:36:14;101775.59;;;13.19;79.47
73457;BME280;61691;53.072;6.582;2023-05-23T02:38:41;101774.75;;;13.18;79.51
73457;BME280;61691;53.072;6.582;2023-05-23T02:41:08;101752.88;;;13.04;79.35
73457;BME280;61691;53.072;6.582;2023-05-23T02:43:35;101770.78;;;13.13;79.66
73457;BME280;61691;53.072;6.582;2023-05-23T02:46:02;101797.50;;;13.23;79.43
73457;BME280;61691;53.072;6.582;2023-05-23T02:48:28;101796.44;;;13.14;79.39
73457;BME280;61691;53.072;6.582;2023-05-23T02:50:55;101790.88;;;13.06;79.16
73457;BME280;61691;53.072;6.582;2023-05-23T02:53:22;101808.78;;;13.04;79.27
73457;BME280;61691;53.072;6.582;2023-05-23T02:55:49;101812.19;;;12.95;79.34
73457;BME280;61691;53.072;6.582;2023-05-23T02:58:15;101796.50;;;12.80;79.81
73457;BME280;61691;53.072;6.582;2023-05-23T03:00:42;101813.94;;;12.85;79.39
73457;BME280;61691;53.072;6.582;2023-05-23T03:03:09;101792.28;;;12.78;79.46
73457;BME280;61691;53.072;6.582;2023-05-23T03:05:37;101807.41;;;12.77;79.91
73457;BME280;61691;53.072;6.582;2023-05-23T03:08:04;101779.13;;;12.65;80.18
73457;BME280;61691;53.072;6.582;2023-05-23T03:10:32;101818.25;;;12.86;79.98
73457;BME280;61691;53.072;6.582;2023-05-23T03:12:59;101795.59;;;12.70;79.67
73457;BME280;61691;53.072;6.582;2023-05-23T03:15:25;101814.06;;;12.83;79.54
73457;BME280;61691;53.072;6.582;2023-05-23T03:17:52;101795.31;;;12.73;79.62
73457;BME280;61691;53.072;6.582;2023-05-23T03:20:19;101810.53;;;12.83;79.36
73457;BME280;61691;53.072;6.582;2023-05-23T03:22:45;101795.72;;;12.69;79.22
73457;BME280;61691;53.072;6.582;2023-05-23T03:25:14;101821.75;;;12.86;79.81
73457;BME280;61691;53.072;6.582;2023-05-23T03:27:41;101827.94;;;12.87;80.06
73457;BME280;61691;53.072;6.582;2023-05-23T03:30:08;101830.97;;;12.82;79.56
73457;BME280;61691;53.072;6.582;2023-05-23T03:32:34;101828.22;;;12.72;79.74
73457;BME280;61691;53.072;6.582;2023-05-23T03:35:01;101835.69;;;12.78;79.58
73457;BME280;61691;53.072;6.582;2023-05-23T03:37:28;101830.88;;;12.72;79.40
73457;BME280;61691;53.072;6.582;2023-05-23T03:39:55;101841.75;;;12.80;79.63
73457;BME280;61691;53.072;6.582;2023-05-23T03:42:21;101840.16;;;12.78;79.55
73457;BME280;61691;53.072;6.582;2023-05-23T03:44:48;101855.53;;;12.74;79.75
73457;BME280;61691;53.072;6.582;2023-05-23T03:47:15;101835.97;;;12.64;79.17
73457;BME280;61691;53.072;6.582;2023-05-23T03:49:41;101846.00;;;12.72;79.41
73457;BME280;61691;53.072;6.582;2023-05-23T03:52:11;101844.44;;;12.69;79.78
73457;BME280;61691;53.072;6.582;2023-05-23T03:54:37;101836.59;;;12.57;79.42
73457;BME280;61691;53.072;6.582;2023-05-23T03:57:04;101852.66;;;12.66;79.82
73457;BME280;61691;53.072;6.582;2023-05-23T03:59:31;101814.25;;;12.37;79.74
73457;BME280;61691;53.072;6.582;2023-05-23T04:01:58;101835.16;;;12.53;80.12
73457;BME280;61691;53.072;6.582;2023-05-23T04:04:27;101883.25;;;12.72;79.79
73457;BME280;61691;53.072;6.582;2023-05-23T04:06:54;101866.69;;;12.68;79.82
73457;BME280;61691;53.072;6.582;2023-05-23T04:09:21;101871.28;;;12.66;79.92
73457;BME280;61691;53.072;6.582;2023-05-23T04:11:48;101876.13;;;12.61;79.92
73457;BME280;61691;53.072;6.582;2023-05-23T04:14:15;101856.53;;;12.51;79.98
73457;BME280;61691;53.072;6.582;2023-05-23T04:16:42;101879.75;;;12.60;79.81
73457;BME280;61691;53.072;6.582;2023-05-23T04:19:10;101885.06;;;12.60;80.01
73457;BME280;61691;53.072;6.582;2023-05-23T04:21:38;101869.38;;;12.46;80.25
73457;BME280;61691;53.072;6.582;2023-05-23T04:24:04;101876.84;;;12.52;80.17
73457;BME280;61691;53.072;6.582;2023-05-23T04:26:31;101866.44;;;12.49;80.15
73457;BME280;61691;53.072;6.582;2023-05-23T04:28:58;101864.53;;;12.40;79.75
73457;BME280;61691;53.072;6.582;2023-05-23T04:31:25;101867.44;;;12.37;79.99
73457;BME280;61691;53.072;6.582;2023-05-23T04:33:52;101888.47;;;12.40;79.78
73457;BME280;61691;53.072;6.582;2023-05-23T04:36:19;101902.47;;;12.42;79.75
73457;BME280;61691;53.072;6.582;2023-05-23T04:38:48;101902.00;;;12.48;79.49
73457;BME280;61691;53.072;6.582;2023-05-23T04:41:15;101902.25;;;12.45;79.62
73457;BME280;61691;53.072;6.582;2023-05-23T04:43:42;101896.69;;;12.37;79.26
73457;BME280;61691;53.072;6.582;2023-05-23T04:46:10;101877.34;;;12.24;79.46
73457;BME280;61691;53.072;6.582;2023-05-23T04:48:36;101921.34;;;12.50;79.26
73457;BME280;61691;53.072;6.582;2023-05-23T04:51:04;101904.44;;;12.40;79.50
73457;BME280;61691;53.072;6.582;2023-05-23T04:53:34;101921.34;;;12.50;79.17
73457;BME280;61691;53.072;6.582;2023-05-23T04:56:02;101917.94;;;12.48;79.25
73457;BME280;61691;53.072;6.582;2023-05-23T04:58:29;101912.88;;;12.45;79.23
73457;BME280;61691;53.072;6.582;2023-05-23T05:00:57;101932.22;;;12.47;78.86
73457;BME280;61691;53.072;6.582;2023-05-23T05:03:24;101907.56;;;12.23;78.75
73457;BME280;61691;53.072;6.582;2023-05-23T05:05:51;101945.03;;;12.42;79.02
73457;BME280;61691;53.072;6.582;2023-05-23T05:08:19;101924.81;;;12.28;79.11
73457;BME280;61691;53.072;6.582;2023-05-23T05:10:46;101943.31;;;12.41;79.40
73457;BME280;61691;53.072;6.582;2023-05-23T05:13:13;101926.41;;;12.31;79.00
73457;BME280;61691;53.072;6.582;2023-05-23T05:15:39;101964.38;;;12.44;78.81
73457;BME280;61691;53.072;6.582;2023-05-23T05:18:06;101929.56;;;12.25;78.72
73457;BME280;61691;53.072;6.582;2023-05-23T05:20:33;101949.81;;;12.26;78.66
73457;BME280;61691;53.072;6.582;2023-05-23T05:22:59;101942.34;;;12.20;78.94
73457;BME280;61691;53.072;6.582;2023-05-23T05:25:26;101937.22;;;12.06;78.92
73457;BME280;61691;53.072;6.582;2023-05-23T05:27:59;101946.63;;;11.98;78.88
73457;BME280;61691;53.072;6.582;2023-05-23T05:30:28;101966.94;;;12.11;79.26
73457;BME280;61691;53.072;6.582;2023-05-23T05:32:55;101964.78;;;12.05;79.24
73457;BME280;61691;53.072;6.582;2023-05-23T05:35:23;101984.84;;;12.09;78.71
73457;BME280;61691;53.072;6.582;2023-05-23T05:37:50;101985.53;;;11.99;78.61
73457;BME280;61691;53.072;6.582;2023-05-23T05:40:17;101963.00;;;11.81;78.91
73457;BME280;61691;53.072;6.582;2023-05-23T05:42:43;102003.50;;;11.96;78.27
73457;BME280;61691;53.072;6.582;2023-05-23T05:45:10;101993.47;;;11.88;78.33
73457;BME280;61691;53.072;6.582;2023-05-23T05:47:37;102000.25;;;11.92;78.76
73457;BME280;61691;53.072;6.582;2023-05-23T05:50:05;102004.38;;;11.96;77.91
73457;BME280;61691;53.072;6.582;2023-05-23T05:52:33;102021.03;;;11.98;78.23
73457;BME280;61691;53.072;6.582;2023-05-23T05:55:08;101993.69;;;11.85;77.75
73457;BME280;61691;53.072;6.582;2023-05-23T05:57:39;102007.00;;;11.85;77.74
73457;BME280;61691;53.072;6.582;2023-05-23T06:00:08;102007.00;;;11.85;77.67
73457;BME280;61691;53.072;6.582;2023-05-23T06:02:39;102039.88;;;11.95;77.14
73457;BME280;61691;53.072;6.582;2023-05-23T06:05:08;102022.38;;;11.93;77.08
73457;BME280;61691;53.072;6.582;2023-05-23T06:07:40;102039.88;;;11.95;76.51
73457;BME280;61691;53.072;6.582;2023-05-23T06:10:08;102030.44;;;11.91;76.35
73457;BME280;61691;53.072;6.582;2023-05-23T06:12:38;102025.03;;;11.93;77.11
73457;BME280;61691;53.072;6.582;2023-05-23T06:15:06;102032.88;;;11.94;76.98
73457;BME280;61691;53.072;6.582;2023-05-23T06:17:33;101995.47;;;11.61;76.51
73457;BME280;61691;53.072;6.582;2023-05-23T06:20:00;102044.47;;;11.93;76.37
73457;BME280;61691;53.072;6.582;2023-05-23T06:22:27;102050.50;;;11.95;76.32
73457;BME280;61691;53.072;6.582;2023-05-23T06:24:53;102061.88;;;11.97;76.51
73457;BME280;61691;53.072;6.582;2023-05-23T06:27:20;102046.16;;;11.94;75.84
73457;BME280;61691;53.072;6.582;2023-05-23T06:29:47;102043.34;;;11.85;76.20
73457;BME280;61691;53.072;6.582;2023-05-23T06:32:13;102066.91;;;11.89;75.81
73457;BME280;61691;53.072;6.582;2023-05-23T06:34:40;102069.06;;;11.84;76.16
73457;BME280;61691;53.072;6.582;2023-05-23T06:37:07;102059.59;;;11.80;75.59
73457;BME280;61691;53.072;6.582;2023-05-23T06:39:34;102068.22;;;11.84;75.37
73457;BME280;61691;53.072;6.582;2023-05-23T06:42:00;102001.06;;;11.45;74.96
73457;BME280;61691;53.072;6.582;2023-05-23T06:44:28;102034.06;;;11.54;74.48
73457;BME280;61691;53.072;6.582;2023-05-23T06:46:54;102068.78;;;11.63;74.75
73457;BME280;61691;53.072;6.582;2023-05-23T06:49:23;102039.28;;;11.55;74.36
73457;BME280;61691;53.072;6.582;2023-05-23T06:51:50;102083.50;;;11.80;73.26
73457;BME280;61691;53.072;6.582;2023-05-23T06:54:18;102077.41;;;11.91;74.06
73457;BME280;61691;53.072;6.582;2023-05-23T06:56:46;102082.25;;;12.10;73.60
73457;BME280;61691;53.072;6.582;2023-05-23T06:59:13;102087.50;;;12.33;73.17
73457;BME280;61691;53.072;6.582;2023-05-23T07:01:39;102087.19;;;12.38;70.71
73457;BME280;61691;53.072;6.582;2023-05-23T07:04:06;102079.69;;;12.43;71.14
73457;BME280;61691;53.072;6.582;2023-05-23T07:06:34;102093.25;;;12.51;70.79
73457;BME280;61691;53.072;6.582;2023-05-23T07:09:02;102080.44;;;12.56;70.45
73457;BME280;61691;53.072;6.582;2023-05-23T07:11:29;102092.78;;;12.57;70.22
73457;BME280;61691;53.072;6.582;2023-05-23T07:13:56;102091.25;;;12.66;68.92
73457;BME280;61691;53.072;6.582;2023-05-23T07:16:23;102092.41;;;12.51;67.92
73457;BME280;61691;53.072;6.582;2023-05-23T07:18:51;102117.94;;;12.53;68.10
73457;BME280;61691;53.072;6.582;2023-05-23T07:21:17;102099.78;;;12.47;67.60
73457;BME280;61691;53.072;6.582;2023-05-23T07:23:44;102120.53;;;12.42;67.06
73457;BME280;61691;53.072;6.582;2023-05-23T07:26:11;102120.53;;;12.42;67.82
73457;BME280;61691;53.072;6.582;2023-05-23T07:28:38;102121.34;;;12.31;67.73
73457;BME280;61691;53.072;6.582;2023-05-23T07:31:04;102126.59;;;12.44;67.88
73457;BME280;61691;53.072;6.582;2023-05-23T07:33:34;102127.56;;;12.43;67.64
73457;BME280;61691;53.072;6.582;2023-05-23T07:36:02;102106.69;;;12.26;67.21
73457;BME280;61691;53.072;6.582;2023-05-23T07:38:28;102121.47;;;12.30;67.24
73457;BME280;61691;53.072;6.582;2023-05-23T07:40:55;102138.28;;;12.30;66.85
73457;BME280;61691;53.072;6.582;2023-05-23T07:43:37;102107.91;;;12.22;66.91
73457;BME280;61691;53.072;6.582;2023-05-23T07:46:04;102114.94;;;12.34;66.72
73457;BME280;61691;53.072;6.582;2023-05-23T07:48:31;102112.06;;;12.37;66.96
73457;BME280;61691;53.072;6.582;2023-05-23T07:50:58;102142.38;;;12.58;67.49
73457;BME280;61691;53.072;6.582;2023-05-23T07:53:25;102109.69;;;12.45;66.79
73457;BME280;61691;53.072;6.582;2023-05-23T07:55:52;102136.31;;;12.56;66.46
73457;BME280;61691;53.072;6.582;2023-05-23T07:58:19;102092.59;;;12.36;65.84
73457;BME280;61691;53.072;6.582;2023-05-23T08:00:45;102127.63;;;12.65;66.22
73457;BME280;61691;53.072;6.582;2023-05-23T08:03:12;102145.84;;;12.83;66.08
73457;BME280;61691;53.072;6.582;2023-05-23T08:05:39;102117.16;;;12.75;64.78
73457;BME280;61691;53.072;6.582;2023-05-23T08:08:06;102139.34;;;12.98;65.28
73457;BME280;61691;53.072;6.582;2023-05-23T08:10:33;102152.41;;;13.12;64.57
73457;BME280;61691;53.072;6.582;2023-05-23T08:12:59;102121.19;;;13.03;64.02
73457;BME280;61691;53.072;6.582;2023-05-23T08:15:29;102148.13;;;13.22;63.92
73457;BME280;61691;53.072;6.582;2023-05-23T08:17:56;102150.88;;;13.21;63.24
73457;BME280;61691;53.072;6.582;2023-05-23T08:20:24;102154.75;;;13.16;62.80
73457;BME280;61691;53.072;6.582;2023-05-23T08:22:57;102169.66;;;13.19;63.68
73457;BME280;61691;53.072;6.582;2023-05-23T08:25:25;102177.88;;;13.27;63.81
73457;BME280;61691;53.072;6.582;2023-05-23T08:27:59;102147.84;;;13.25;62.53
73457;BME280;61691;53.072;6.582;2023-05-23T08:30:27;102156.72;;;13.37;61.73
73457;BME280;61691;53.072;6.582;2023-05-23T08:32:55;102163.47;;;13.41;61.65
73457;BME280;61691;53.072;6.582;2023-05-23T08:35:22;102172.56;;;13.49;61.74
73457;BME280;61691;53.072;6.582;2023-05-23T08:37:49;102174.25;;;13.73;60.99
73457;BME280;61691;53.072;6.582;2023-05-23T08:40:19;102167.72;;;13.77;60.65
73457;BME280;61691;53.072;6.582;2023-05-23T08:42:49;102182.47;;;14.03;59.10
73457;BME280;61691;53.072;6.582;2023-05-23T08:45:17;102145.72;;;14.07;58.71
73457;BME280;61691;53.072;6.582;2023-05-23T08:47:45;102186.28;;;14.32;58.48
73457;BME280;61691;53.072;6.582;2023-05-23T08:50:14;102174.59;;;14.45;58.62
73457;BME280;61691;53.072;6.582;2023-05-23T08:52:55;102187.19;;;14.54;57.26
73457;BME280;61691;53.072;6.582;2023-05-23T08:55:24;102158.41;;;14.25;57.68
73457;BME280;61691;53.072;6.582;2023-05-23T08:57:55;102167.59;;;14.32;56.81
73457;BME280;61691;53.072;6.582;2023-05-23T09:00:24;102198.25;;;14.49;57.26
73457;BME280;61691;53.072;6.582;2023-05-23T09:02:51;102163.34;;;14.30;57.27
73457;BME280;61691;53.072;6.582;2023-05-23T09:05:19;102211.53;;;14.60;57.25
73457;BME280;61691;53.072;6.582;2023-05-23T09:07:47;102192.00;;;14.60;57.02
73457;BME280;61691;53.072;6.582;2023-05-23T09:10:15;102202.88;;;14.79;56.72
73457;BME280;61691;53.072;6.582;2023-05-23T09:12:48;102212.63;;;14.90;56.04
73457;BME280;61691;53.072;6.582;2023-05-23T09:15:15;102218.38;;;14.85;55.78
73457;BME280;61691;53.072;6.582;2023-05-23T09:17:43;102213.97;;;14.63;54.92
73457;BME280;61691;53.072;6.582;2023-05-23T09:20:15;102214.09;;;14.62;54.89
73457;BME280;61691;53.072;6.582;2023-05-23T09:22:46;102198.06;;;14.62;55.48
73457;BME280;61691;53.072;6.582;2023-05-23T09:25:14;102206.41;;;14.68;55.18
73457;BME280;61691;53.072;6.582;2023-05-23T09:27:41;102204.28;;;14.83;54.68
73457;BME280;61691;53.072;6.582;2023-05-23T09:30:13;102213.75;;;14.87;54.12
73457;BME280;61691;53.072;6.582;2023-05-23T09:32:40;102203.06;;;14.87;54.25
73457;BME280;61691;53.072;6.582;2023-05-23T09:35:08;102224.84;;;15.03;54.35
73457;BME280;61691;53.072;6.582;2023-05-23T09:37:42;102210.56;;;15.14;54.33
73457;BME280;61691;53.072;6.582;2023-05-23T09:40:13;102217.56;;;15.36;54.02
73457;BME280;61691;53.072;6.582;2023-05-23T09:42:45;102222.38;;;15.42;53.07
73457;BME280;61691;53.072;6.582;2023-05-23T09:45:12;102214.84;;;15.47;52.88
73457;BME280;61691;53.072;6.582;2023-05-23T09:47:51;102201.84;;;15.42;53.11
73457;BME280;61691;53.072;6.582;2023-05-23T09:50:19;102214.06;;;15.56;53.17
73457;BME280;61691;53.072;6.582;2023-05-23T09:52:46;102220.25;;;15.57;52.09
73457;BME280;61691;53.072;6.582;2023-05-23T09:55:13;102216.13;;;15.53;52.06
73457;BME280;61691;53.072;6.582;2023-05-23T09:57:41;102196.97;;;15.47;52.28
73457;BME280;61691;53.072;6.582;2023-05-23T10:00:09;102210.06;;;15.50;52.07
73457;BME280;61691;53.072;6.582;2023-05-23T10:02:53;102225.25;;;15.50;51.62
73457;BME280;61691;53.072;6.582;2023-05-23T10:08:00;102231.47;;;15.30;52.33
73457;BME280;61691;53.072;6.582;2023-05-23T10:10:31;102223.66;;;15.17;52.07
73457;BME280;61691;53.072;6.582;2023-05-23T10:13:01;102235.97;;;15.08;52.31
73457;BME280;61691;53.072;6.582;2023-05-23T10:15:38;102229.44;;;15.01;52.40
73457;BME280;61691;53.072;6.582;2023-05-23T10:18:14;102225.59;;;14.94;51.70
73457;BME280;61691;53.072;6.582;2023-05-23T10:20:46;102216.22;;;15.00;51.94
73457;BME280;61691;53.072;6.582;2023-05-23T10:23:14;102211.81;;;15.10;52.14
73457;BME280;61691;53.072;6.582;2023-05-23T10:25:43;102177.22;;;15.08;51.52
73457;BME280;61691;53.072;6.582;2023-05-23T10:28:12;102225.28;;;15.29;51.00
73457;BME280;61691;53.072;6.582;2023-05-23T10:30:39;102216.41;;;15.29;51.19
73457;BME280;61691;53.072;6.582;2023-05-23T10:33:07;102231.72;;;15.47;51.11
73457;BME280;61691;53.072;6.582;2023-05-23T10:38:30;102244.44;;;15.55;50.74
73457;BME280;61691;53.072;6.582;2023-05-23T10:43:46;102196.03;;;15.07;50.26
73457;BME280;61691;53.072;6.582;2023-05-23T10:46:14;102249.44;;;15.28;50.72
73457;BME280;61691;53.072;6.582;2023-05-23T10:48:42;102264.69;;;15.37;50.98
73457;BME280;61691;53.072;6.582;2023-05-23T10:51:11;102252.25;;;15.26;50.88
73457;BME280;61691;53.072;6.582;2023-05-23T10:53:44;102265.03;;;15.23;51.33
73457;BME280;61691;53.072;6.582;2023-05-23T10:56:22;102258.75;;;15.13;50.59
73457;BME280;61691;53.072;6.582;2023-05-23T10:58:53;102259.03;;;15.09;50.57
73457;BME280;61691;53.072;6.582;2023-05-23T11:01:21;102268.75;;;15.10;50.92
73457;BME280;61691;53.072;6.582;2023-05-23T11:03:50;102281.56;;;15.17;51.42
73457;BME280;61691;53.072;6.582;2023-05-23T11:06:40;102288.88;;;15.15;50.04
73457;BME280;61691;53.072;6.582;2023-05-23T11:09:18;102259.28;;;15.06;50.35
73457;BME280;61691;53.072;6.582;2023-05-23T11:12:04;102282.44;;;15.17;49.04
73457;BME280;61691;53.072;6.582;2023-05-23T11:14:50;102282.34;;;15.07;49.40
73457;BME280;61691;53.072;6.582;2023-05-23T11:17:31;102284.06;;;14.97;49.84
73457;BME280;61691;53.072;6.582;2023-05-23T11:20:05;102292.59;;;14.91;50.13
73457;BME280;61691;53.072;6.582;2023-05-23T11:22:35;102281.47;;;14.86;50.32
73457;BME280;61691;53.072;6.582;2023-05-23T11:25:07;102288.72;;;14.95;50.68
73457;BME280;61691;53.072;6.582;2023-05-23T11:27:39;102284.22;;;14.96;49.61
73457;BME280;61691;53.072;6.582;2023-05-23T11:30:10;102283.06;;;15.09;49.81
73457;BME280;61691;53.072;6.582;2023-05-23T11:32:40;102282.34;;;15.07;49.64
73457;BME280;61691;53.072;6.582;2023-05-23T11:35:09;102293.34;;;15.14;49.58
73457;BME280;61691;53.072;6.582;2023-05-23T11:37:38;102289.09;;;15.11;49.99
73457;BME280;61691;53.072;6.582;2023-05-23T11:42:55;102293.47;;;15.13;49.84
73457;BME280;61691;53.072;6.582;2023-05-23T11:45:22;102278.94;;;15.05;49.32
73457;BME280;61691;53.072;6.582;2023-05-23T11:47:49;102269.00;;;15.07;48.91
73457;BME280;61691;53.072;6.582;2023-05-23T11:50:17;102293.84;;;15.40;49.40
73457;BME280;61691;53.072;6.582;2023-05-23T11:52:46;102276.75;;;15.52;49.05
73457;BME280;61691;53.072;6.582;2023-05-23T11:55:21;102286.56;;;15.63;48.78
73457;BME280;61691;53.072;6.582;2023-05-23T11:57:49;102300.06;;;15.50;48.87
73457;BME280;61691;53.072;6.582;2023-05-23T12:00:17;102303.41;;;15.42;49.23
73457;BME280;61691;53.072;6.582;2023-05-23T12:02:45;102299.44;;;15.37;49.68
73457;BME280;61691;53.072;6.582;2023-05-23T12:05:15;102291.81;;;15.32;49.02
73457;BME280;61691;53.072;6.582;2023-05-23T12:07:46;102299.09;;;15.51;49.50
73457;BME280;61691;53.072;6.582;2023-05-23T12:10:14;102291.09;;;15.51;48.19
73457;BME280;61691;53.072;6.582;2023-05-23T12:12:50;102296.09;;;15.44;48.76
73457;BME280;61691;53.072;6.582;2023-05-23T12:15:17;102285.09;;;15.38;48.36
73457;BME280;61691;53.072;6.582;2023-05-23T12:17:44;102271.28;;;15.33;48.56
73457;BME280;61691;53.072;6.582;2023-05-23T12:20:16;102294.50;;;15.53;48.38
73457;BME280;61691;53.072;6.582;2023-05-23T12:22:45;102299.84;;;15.53;47.63
73457;BME280;61691;53.072;6.582;2023-05-23T12:25:12;102278.50;;;15.42;47.29
73457;BME280;61691;53.072;6.582;2023-05-23T12:27:40;102261.38;;;15.24;47.24
73457;BME280;61691;53.072;6.582;2023-05-23T12:30:16;102307.91;;;15.42;46.66
73457;BME280;61691;53.072;6.582;2023-05-23T12:32:44;102317.09;;;15.28;46.84
73457;BME280;61691;53.072;6.582;2023-05-23T12:35:13;102291.97;;;15.20;46.98
73457;BME280;61691;53.072;6.582;2023-05-23T12:37:40;102308.69;;;15.33;46.95
73457;BME280;61691;53.072;6.582;2023-05-23T12:40:13;102307.56;;;15.35;47.11
73457;BME280;61691;53.072;6.582;2023-05-23T12:42:48;102311.28;;;15.44;47.51
73457;BME280;61691;53.072;6.582;2023-05-23T12:45:16;102308.59;;;15.55;47.14
73457;BME280;61691;53.072;6.582;2023-05-23T12:47:43;102292.13;;;15.39;47.70
73457;BME280;61691;53.072;6.582;2023-05-23T12:50:10;102299.69;;;15.34;48.30
73457;BME280;61691;53.072;6.582;2023-05-23T12:52:38;102325.81;;;15.30;48.17
73457;BME280;61691;53.072;6.582;2023-05-23T12:55:07;102305.53;;;15.28;48.82
73457;BME280;61691;53.072;6.582;2023-05-23T12:57:34;102307.53;;;15.26;48.53
73457;BME280;61691;53.072;6.582;2023-05-23T13:00:03;102314.53;;;15.27;48.41
73457;BME280;61691;53.072;6.582;2023-05-23T13:02:30;102323.19;;;15.19;47.94
73457;BME280;61691;53.072;6.582;2023-05-23T13:04:57;102307.88;;;15.00;48.40
73457;BME280;61691;53.072;6.582;2023-05-23T13:07:24;102311.75;;;14.96;48.23
73457;BME280;61691;53.072;6.582;2023-05-23T13:09:51;102318.56;;;15.00;48.08
73457;BME280;61691;53.072;6.582;2023-05-23T13:12:18;102299.03;;;14.89;48.07
73457;BME280;61691;53.072;6.582;2023-05-23T13:14:45;102311.00;;;15.05;48.20
73457;BME280;61691;53.072;6.582;2023-05-23T13:17:12;102301.78;;;15.09;48.74